NCAR-RAP Real-Time Weather Data

Output produced by METARs form (21 May 2019  11:14 UTC)
found at http://weather.rap.ucar.edu/surface/
 
RJOT 211100Z 23007KT 9999 FEW030 SCT/// 17/11 Q1005
RJOT 211000Z 27006KT 9999 FEW030 19/11 Q1005
RJOT 210900Z 29008KT 9999 FEW030 22/11 Q1004
RJOT 210800Z 28008KT 240V310 9999 FEW030 23/10 Q1004
RJOT 210700Z VRB05KT 9999 FEW030 SCT/// 23/11 Q1003
RJOT 210600Z 28008KT 230V330 9999 FEW030 BKN/// 23/09 Q1004
RJOT 210500Z VRB05KT 9999 FEW030 SCT/// 22/09 Q1004
RJOT 210400Z 31008KT 270V350 9999 FEW030 BKN/// 22/09 Q1005
RJOT 210319Z 34006KT 300V020 9999 FEW030 BKN/// 22/09 Q1005 RMK 1CU030 A2969
RJOT 210300Z 28010KT 240V310 9999 FEW030 BKN/// 22/10 Q1005
RJOT 210200Z 28011KT 250V310 9999 FEW030 BKN/// 20/08 Q1005
RJOT 210100Z 27012KT 9999 FEW025 BKN/// 18/11 Q1006
RJOT 210000Z 29010KT 9999 FEW020 SCT030 BKN070 18/13 Q1006
RJOT 202300Z 25009KT 9999 FEW020 SCT030 BKN040 17/14 Q1006
RJOT 202200Z 24009KT 9999 SCT020 BKN050 16/14 Q1005
RJOT 202120Z 24010KT 9999 FEW005 SCT050 BKN120 15/14 Q1005 RMK 1ST005 3SC050 5AC120 A2970
RJOT 201215Z 24009KT 4500 SHRA BR FEW005 SCT010 BKN015 19/18 Q1004 RMK 1ST005 3ST010 5CU015 A2966 P/RR
RJOT 201206Z 25012KT 6000 SHRA FEW005 SCT010 BKN015 19/18 Q1004 RMK 1ST005 3ST010 5CU015 A2965 P/RR
RJOT 201200Z 25013KT 9999 -SHRA FEW010 SCT015 BKN030 19/19 Q1003
RJOT 201100Z 08005KT 9999 -SHRA FEW015 SCT030 BKN060 21/18 Q1002
RJOT 201000Z 05006KT 020V120 9999 VCSH FEW015 SCT030 BKN060 21/17 Q1003
RJOT 200900Z 09007KT 9999 VCSH FEW015 SCT030 BKN080 22/16 Q1003
RJOT 200800Z 09006KT 050V170 9999 FEW020 SCT035 BKN080 23/16 Q1004
RJOT 200700Z 10008KT 070V140 9999 FEW025 SCT080 BKN170 23/16 Q1004
RJOT 200600Z 12007G17KT 050V180 9999 FEW030 SCT150 BKN/// 24/16 Q1005
RJOT 200500Z 11010G21KT 060V150 9999 FEW020 SCT150 BKN/// 24/16 Q1005
RJOT 200400Z 11009KT 060V150 9999 VCSH FEW015 SCT035 BKN120 22/16 Q1006
RJOT 200300Z VRB07KT 9999 FEW015 SCT030 BKN130 24/18 Q1007
RJOT 200200Z 11006KT 070V170 9999 FEW015 BKN030 BKN170 23/17 Q1007
RJOT 200100Z 09007KT 050V130 9999 -SHRA FEW015 SCT030 BKN100 21/17 Q1007
RJOT 200000Z 11006KT 060V170 9999 VCSH FEW020 SCT070 BKN150 22/16 Q1008
RJOT 192300Z 11006KT 060V180 9999 -SHRA FEW020 SCT030 BKN120 21/17 Q1009
RJOT 192200Z VRB02KT 9999 -SHRA FEW020 SCT040 BKN130 20/16 Q1009
RJOT 192120Z 07004KT 040V120 9999 FEW020 BKN140 20/17 Q1009 RMK 1CU020 6AC140 A2982
RJOT 191200Z 11004KT 080V150 9999 VCSH FEW025 SCT040 BKN080 20/13 Q1015
RJOT 191100Z 12005KT 050V170 9999 FEW025 SCT080 BKN/// 20/13 Q1014
RJOT 191000Z 11005KT 030V180 9999 FEW025 SCT080 BKN/// 20/13 Q1014
RJOT 190900Z 11007G17KT 080V170 9999 FEW025 SCT050 BKN/// 20/13 Q1014
RJOT 190800Z 11009KT 080V170 9999 FEW025 SCT080 BKN100 21/13 Q1015
RJOT 190700Z 13009KT 060V200 9999 FEW025 SCT080 BKN/// 22/14 Q1014
RJOT 190600Z VRB07KT 9999 FEW025 BKN150 BKN/// 23/13 Q1014
RJOT 190500Z VRB08G19KT 9999 FEW025 BKN/// 24/14 Q1014
RJOT 190400Z 13010KT 070V210 9999 FEW025 SCT050 BKN/// 23/13 Q1014
RJOT 190300Z VRB07G19KT 9999 FEW025 BKN/// 25/14 Q1015
RJOT 190200Z 13008KT 060V190 9999 FEW025 BKN/// 24/15 Q1015
RJOT 190100Z 11006KT 030V180 9999 FEW025 BKN/// 24/15 Q1016
RJOT 190000Z 11006KT 060V200 9999 FEW025 BKN/// 23/15 Q1016